BRX1248 EKAH-EKCH
Flight info
| Callsign | BRX1248 |
|---|---|
| Flight time | 0h 37m |
| Altitude | 13000 |
| Route | DCT TESPI TESP4C |
| Aircraft | AT76/M-SDFGIRY/S |
Departure
| Time | 2026-05-05 09:37 |
|---|---|
| Airport | Aarhus Airport (EKAH) |
Arrival
| Time | 2026-05-05 10:15 |
|---|---|
| Airport | Copenhagen Kastrup Airport (EKCH) |
| Time | Latitude | Longitude | Altitude | Speed | Heading |
|---|---|---|---|---|---|
| 2026-05-05 09:13 | 56.30717 | 10.62695 | 85 ft | 0 kts | 10° |
| 2026-05-05 09:30 | 56.30700 | 10.62690 | 89 ft | 4 kts | 10° |
| 2026-05-05 09:30 | 56.30674 | 10.62679 | 88 ft | 4 kts | 29° |
| 2026-05-05 09:31 | 56.30661 | 10.62662 | 86 ft | 4 kts | 63° |
| 2026-05-05 09:31 | 56.30658 | 10.62630 | 88 ft | 1 kts | 100° |
| 2026-05-05 09:31 | 56.30658 | 10.62623 | 86 ft | 0 kts | 100° |
| 2026-05-05 09:34 | 56.30648 | 10.62722 | 85 ft | 13 kts | 100° |
| 2026-05-05 09:34 | 56.30631 | 10.62904 | 88 ft | 18 kts | 99° |
| 2026-05-05 09:35 | 56.30537 | 10.62994 | 85 ft | 21 kts | 194° |
| 2026-05-05 09:35 | 56.30210 | 10.63095 | 83 ft | 32 kts | 97° |
| 2026-05-05 09:35 | 56.30177 | 10.63506 | 83 ft | 35 kts | 99° |
| 2026-05-05 09:36 | 56.30136 | 10.63939 | 86 ft | 36 kts | 88° |
| 2026-05-05 09:36 | 56.30283 | 10.64155 | 87 ft | 18 kts | 9° |
| 2026-05-05 09:36 | 56.30312 | 10.64079 | 86 ft | 10 kts | 279° |
| 2026-05-05 09:36 | 56.30366 | 10.63560 | 86 ft | 74 kts | 280° |
| 2026-05-05 09:37 | 56.30488 | 10.62295 | 97 ft | 127 kts | 280° |
| 2026-05-05 09:37 | 56.30645 | 10.60597 | 415 ft | 148 kts | 283° |
| 2026-05-05 09:37 | 56.30876 | 10.58663 | 785 ft | 169 kts | 283° |
| 2026-05-05 09:37 | 56.31116 | 10.56591 | 1324 ft | 172 kts | 283° |
| 2026-05-05 09:38 | 56.31320 | 10.54457 | 2042 ft | 172 kts | 269° |
| 2026-05-05 09:38 | 56.30751 | 10.52584 | 2698 ft | 181 kts | 217° |
| 2026-05-05 09:38 | 56.29552 | 10.52073 | 3328 ft | 186 kts | 169° |
| 2026-05-05 09:38 | 56.28329 | 10.52834 | 3905 ft | 188 kts | 159° |
| 2026-05-05 09:39 | 56.27103 | 10.53717 | 4556 ft | 191 kts | 157° |
| 2026-05-05 09:39 | 56.25870 | 10.54676 | 5225 ft | 194 kts | 156° |
| 2026-05-05 09:39 | 56.24635 | 10.55656 | 5878 ft | 193 kts | 165° |
| 2026-05-05 09:39 | 56.23327 | 10.55631 | 6491 ft | 191 kts | 192° |
| 2026-05-05 09:40 | 56.22004 | 10.55321 | 7051 ft | 192 kts | 191° |
| 2026-05-05 09:40 | 56.20674 | 10.55085 | 7446 ft | 193 kts | 190° |
| 2026-05-05 09:40 | 56.19336 | 10.54905 | 7889 ft | 192 kts | 189° |
| 2026-05-05 09:40 | 56.17999 | 10.54804 | 8303 ft | 193 kts | 188° |
| 2026-05-05 09:41 | 56.16659 | 10.54738 | 8734 ft | 192 kts | 188° |
| 2026-05-05 09:41 | 56.15318 | 10.54691 | 9143 ft | 192 kts | 189° |
| 2026-05-05 09:41 | 56.13978 | 10.54625 | 9577 ft | 192 kts | 190° |
| 2026-05-05 09:41 | 56.12644 | 10.54551 | 9977 ft | 192 kts | 191° |
| 2026-05-05 09:42 | 56.11309 | 10.54465 | 10311 ft | 193 kts | 190° |
| 2026-05-05 09:42 | 56.09962 | 10.54385 | 10659 ft | 194 kts | 190° |
| 2026-05-05 09:42 | 56.08613 | 10.54305 | 11014 ft | 194 kts | 190° |
| 2026-05-05 09:42 | 56.07261 | 10.54224 | 11359 ft | 195 kts | 190° |
| 2026-05-05 09:43 | 56.05902 | 10.54142 | 11706 ft | 196 kts | 190° |
| 2026-05-05 09:43 | 56.04556 | 10.54061 | 12034 ft | 196 kts | 190° |
| 2026-05-05 09:43 | 56.03186 | 10.53977 | 12388 ft | 197 kts | 190° |
| 2026-05-05 09:43 | 56.01809 | 10.53892 | 12728 ft | 198 kts | 190° |
| 2026-05-05 09:44 | 56.00401 | 10.53800 | 12871 ft | 209 kts | 190° |
| 2026-05-05 09:44 | 55.98905 | 10.53673 | 12932 ft | 222 kts | 190° |
| 2026-05-05 09:44 | 55.97319 | 10.53525 | 12953 ft | 235 kts | 189° |
| 2026-05-05 09:44 | 55.95645 | 10.53406 | 12964 ft | 245 kts | 188° |
| 2026-05-05 09:45 | 55.93911 | 10.53301 | 12972 ft | 254 kts | 188° |
| 2026-05-05 09:45 | 55.92127 | 10.53228 | 12965 ft | 261 kts | 183° |
| 2026-05-05 09:45 | 55.90355 | 10.54297 | 12966 ft | 282 kts | 151° |
| 2026-05-05 09:45 | 55.89032 | 10.56966 | 12967 ft | 298 kts | 121° |
| 2026-05-05 09:46 | 55.88483 | 10.60565 | 12972 ft | 304 kts | 98° |
| 2026-05-05 09:46 | 55.88274 | 10.64316 | 12972 ft | 306 kts | 97° |
| 2026-05-05 09:46 | 55.88028 | 10.68095 | 12977 ft | 308 kts | 100° |
| 2026-05-05 09:46 | 55.87638 | 10.71854 | 12976 ft | 309 kts | 104° |
| 2026-05-05 09:47 | 55.87152 | 10.75597 | 12975 ft | 311 kts | 106° |
| 2026-05-05 09:47 | 55.86651 | 10.79350 | 12975 ft | 312 kts | 106° |
| 2026-05-05 09:47 | 55.86153 | 10.83114 | 12975 ft | 313 kts | 105° |
| 2026-05-05 09:47 | 55.85681 | 10.86901 | 12976 ft | 313 kts | 105° |
| 2026-05-05 09:48 | 55.85218 | 10.90640 | 12976 ft | 314 kts | 105° |
| 2026-05-05 09:48 | 55.84735 | 10.94433 | 12976 ft | 314 kts | 105° |
| 2026-05-05 09:48 | 55.84229 | 10.98215 | 12975 ft | 314 kts | 107° |
| 2026-05-05 09:48 | 55.83677 | 11.01980 | 12976 ft | 314 kts | 107° |
| 2026-05-05 09:49 | 55.83121 | 11.05734 | 12979 ft | 314 kts | 107° |
| 2026-05-05 09:49 | 55.82567 | 11.09499 | 12977 ft | 314 kts | 107° |
| 2026-05-05 09:49 | 55.82009 | 11.13261 | 12977 ft | 315 kts | 107° |
| 2026-05-05 09:49 | 55.81452 | 11.17022 | 12976 ft | 315 kts | 107° |
| 2026-05-05 09:50 | 55.80891 | 11.20793 | 12975 ft | 315 kts | 108° |
| 2026-05-05 09:50 | 55.80331 | 11.24551 | 12976 ft | 315 kts | 107° |
| 2026-05-05 09:50 | 55.79779 | 11.28266 | 12976 ft | 314 kts | 107° |
| 2026-05-05 09:50 | 55.79215 | 11.32019 | 12970 ft | 315 kts | 108° |
| 2026-05-05 09:51 | 55.78644 | 11.35823 | 12975 ft | 314 kts | 108° |
| 2026-05-05 09:51 | 55.78089 | 11.39520 | 12979 ft | 314 kts | 108° |
| 2026-05-05 09:51 | 55.77526 | 11.43277 | 12970 ft | 315 kts | 108° |
| 2026-05-05 09:51 | 55.77090 | 11.47095 | 12969 ft | 316 kts | 99° |
| 2026-05-05 09:52 | 55.76914 | 11.50974 | 12976 ft | 315 kts | 95° |
| 2026-05-05 09:52 | 55.76784 | 11.54858 | 12974 ft | 316 kts | 95° |
| 2026-05-05 09:52 | 55.76616 | 11.58750 | 12975 ft | 316 kts | 97° |
| 2026-05-05 09:52 | 55.76392 | 11.62628 | 12973 ft | 316 kts | 98° |
| 2026-05-05 09:53 | 55.76164 | 11.66511 | 12978 ft | 316 kts | 98° |
| 2026-05-05 09:53 | 55.75944 | 11.70396 | 12973 ft | 317 kts | 97° |
| 2026-05-05 09:53 | 55.75723 | 11.74288 | 12971 ft | 317 kts | 98° |
| 2026-05-05 09:53 | 55.75500 | 11.78179 | 12970 ft | 317 kts | 97° |
| 2026-05-05 09:54 | 55.75276 | 11.82069 | 12969 ft | 317 kts | 98° |
| 2026-05-05 09:54 | 55.75052 | 11.85961 | 12970 ft | 317 kts | 97° |
| 2026-05-05 09:54 | 55.74821 | 11.89849 | 12961 ft | 317 kts | 98° |
| 2026-05-05 09:54 | 55.74587 | 11.93743 | 12964 ft | 317 kts | 98° |
| 2026-05-05 09:55 | 55.74357 | 11.97630 | 12966 ft | 317 kts | 98° |
| 2026-05-05 09:55 | 55.74125 | 12.01514 | 12970 ft | 317 kts | 98° |
| 2026-05-05 09:55 | 55.73892 | 12.05407 | 12965 ft | 317 kts | 98° |
| 2026-05-05 09:55 | 55.73659 | 12.09306 | 12973 ft | 317 kts | 98° |
| 2026-05-05 09:56 | 55.73422 | 12.13200 | 12969 ft | 318 kts | 98° |
| 2026-05-05 09:56 | 55.73181 | 12.17100 | 12962 ft | 318 kts | 98° |
| 2026-05-05 09:56 | 55.72945 | 12.21002 | 12961 ft | 318 kts | 98° |
| 2026-05-05 09:56 | 55.72704 | 12.24901 | 12963 ft | 318 kts | 98° |
| 2026-05-05 09:57 | 55.72465 | 12.28793 | 12968 ft | 317 kts | 98° |
| 2026-05-05 09:57 | 55.72223 | 12.32691 | 12971 ft | 318 kts | 99° |
| 2026-05-05 09:57 | 55.71977 | 12.36585 | 12965 ft | 318 kts | 98° |
| 2026-05-05 09:57 | 55.71734 | 12.40485 | 12963 ft | 318 kts | 98° |
| 2026-05-05 09:58 | 55.71487 | 12.44377 | 12959 ft | 318 kts | 99° |
| 2026-05-05 09:58 | 55.71242 | 12.48266 | 12964 ft | 317 kts | 98° |
| 2026-05-05 09:58 | 55.71448 | 12.52141 | 12968 ft | 317 kts | 75° |
| 2026-05-05 09:58 | 55.72228 | 12.55804 | 12965 ft | 317 kts | 63° |
| 2026-05-05 09:59 | 55.73273 | 12.59291 | 12589 ft | 327 kts | 59° |
| 2026-05-05 09:59 | 55.74362 | 12.62776 | 12162 ft | 314 kts | 59° |
| 2026-05-05 09:59 | 55.75620 | 12.65726 | 11751 ft | 298 kts | 43° |
| 2026-05-05 09:59 | 55.77104 | 12.68164 | 11350 ft | 285 kts | 42° |
| 2026-05-05 10:00 | 55.78101 | 12.71172 | 10873 ft | 285 kts | 74° |
| 2026-05-05 10:00 | 55.78157 | 12.74625 | 10417 ft | 278 kts | 106° |
| 2026-05-05 10:00 | 55.77303 | 12.77589 | 9975 ft | 265 kts | 137° |
| 2026-05-05 10:00 | 55.75812 | 12.79284 | 9508 ft | 249 kts | 170° |
| 2026-05-05 10:01 | 55.74169 | 12.79279 | 9037 ft | 232 kts | 203° |
| 2026-05-05 10:01 | 55.72924 | 12.77664 | 8571 ft | 220 kts | 238° |
| 2026-05-05 10:01 | 55.72460 | 12.75147 | 8135 ft | 214 kts | 261° |
| 2026-05-05 10:01 | 55.72253 | 12.72535 | 7718 ft | 212 kts | 263° |
| 2026-05-05 10:02 | 55.72089 | 12.70019 | 7235 ft | 200 kts | 264° |
| 2026-05-05 10:02 | 55.71942 | 12.67624 | 6757 ft | 189 kts | 262° |
| 2026-05-05 10:02 | 55.71449 | 12.65415 | 6282 ft | 202 kts | 238° |
| 2026-05-05 10:02 | 55.70537 | 12.63421 | 5784 ft | 215 kts | 232° |
| 2026-05-05 10:03 | 55.69525 | 12.61392 | 5342 ft | 224 kts | 231° |
| 2026-05-05 10:03 | 55.68475 | 12.59337 | 5056 ft | 225 kts | 230° |
| 2026-05-05 10:03 | 55.67415 | 12.57293 | 4793 ft | 224 kts | 230° |
| 2026-05-05 10:03 | 55.66371 | 12.55296 | 4629 ft | 219 kts | 230° |
| 2026-05-05 10:04 | 55.65352 | 12.53319 | 4446 ft | 215 kts | 230° |
| 2026-05-05 10:04 | 55.64341 | 12.51373 | 4263 ft | 214 kts | 230° |
| 2026-05-05 10:04 | 55.63354 | 12.49468 | 4082 ft | 212 kts | 229° |
| 2026-05-05 10:04 | 55.62353 | 12.47523 | 3898 ft | 211 kts | 229° |
| 2026-05-05 10:05 | 55.61378 | 12.45629 | 3712 ft | 210 kts | 230° |
| 2026-05-05 10:05 | 55.60392 | 12.43708 | 3533 ft | 211 kts | 230° |
| 2026-05-05 10:05 | 55.59395 | 12.41791 | 3354 ft | 213 kts | 230° |
| 2026-05-05 10:05 | 55.58380 | 12.39823 | 3170 ft | 219 kts | 229° |
| 2026-05-05 10:06 | 55.57343 | 12.37835 | 3074 ft | 220 kts | 230° |
| 2026-05-05 10:06 | 55.56301 | 12.35838 | 3044 ft | 220 kts | 230° |
| 2026-05-05 10:06 | 55.55261 | 12.33860 | 3016 ft | 219 kts | 229° |
| 2026-05-05 10:06 | 55.53991 | 12.32473 | 2993 ft | 218 kts | 193° |
| 2026-05-05 10:07 | 55.52458 | 12.32099 | 2999 ft | 228 kts | 187° |
| 2026-05-05 10:07 | 55.50840 | 12.31789 | 3001 ft | 238 kts | 186° |
| 2026-05-05 10:07 | 55.49169 | 12.31523 | 2998 ft | 244 kts | 186° |
| 2026-05-05 10:07 | 55.47465 | 12.31262 | 3004 ft | 248 kts | 186° |
| 2026-05-05 10:08 | 55.45737 | 12.31167 | 2989 ft | 249 kts | 172° |
| 2026-05-05 10:08 | 55.44197 | 12.32468 | 2998 ft | 246 kts | 136° |
| 2026-05-05 10:08 | 55.43359 | 12.34977 | 2989 ft | 235 kts | 101° |
| 2026-05-05 10:08 | 55.43399 | 12.37753 | 3012 ft | 223 kts | 78° |
| 2026-05-05 10:09 | 55.43671 | 12.40438 | 2996 ft | 221 kts | 77° |
| 2026-05-05 10:09 | 55.44015 | 12.43031 | 2993 ft | 213 kts | 65° |
| 2026-05-05 10:09 | 55.44981 | 12.44876 | 2998 ft | 205 kts | 24° |
| 2026-05-05 10:09 | 55.46314 | 12.45542 | 3003 ft | 201 kts | 8° |
| 2026-05-05 10:10 | 55.47698 | 12.45951 | 3014 ft | 204 kts | 7° |
| 2026-05-05 10:10 | 55.49161 | 12.46316 | 2684 ft | 219 kts | 6° |
| 2026-05-05 10:10 | 55.50671 | 12.46762 | 2288 ft | 219 kts | 19° |
| 2026-05-05 10:10 | 55.51857 | 12.48329 | 2005 ft | 204 kts | 43° |
| 2026-05-05 10:11 | 55.52786 | 12.50066 | 1740 ft | 185 kts | 44° |
| 2026-05-05 10:11 | 55.53612 | 12.51628 | 1506 ft | 162 kts | 45° |
| 2026-05-05 10:11 | 55.54365 | 12.52956 | 1300 ft | 145 kts | 40° |
| 2026-05-05 10:11 | 55.55085 | 12.54032 | 1118 ft | 124 kts | 38° |
| 2026-05-05 10:12 | 55.55744 | 12.54998 | 964 ft | 124 kts | 36° |
| 2026-05-05 10:12 | 55.56407 | 12.55985 | 792 ft | 126 kts | 39° |
| 2026-05-05 10:12 | 55.57038 | 12.56987 | 625 ft | 117 kts | 40° |
| 2026-05-05 10:12 | 55.57617 | 12.57932 | 482 ft | 111 kts | 38° |
| 2026-05-05 10:13 | 55.58211 | 12.58787 | 359 ft | 114 kts | 38° |
| 2026-05-05 10:13 | 55.58811 | 12.59708 | 196 ft | 113 kts | 40° |
| 2026-05-05 10:13 | 55.59387 | 12.60602 | 48 ft | 108 kts | 39° |
| 2026-05-05 10:13 | 55.59915 | 12.61409 | 20 ft | 88 kts | 39° |
| 2026-05-05 10:14 | 55.60333 | 12.62062 | 21 ft | 72 kts | 39° |
| 2026-05-05 10:14 | 55.60666 | 12.62579 | 24 ft | 59 kts | 43° |
| 2026-05-05 10:14 | 55.60987 | 12.63074 | 22 ft | 64 kts | 38° |
| 2026-05-05 10:14 | 55.61324 | 12.63601 | 25 ft | 67 kts | 40° |
| 2026-05-05 10:15 | 55.61617 | 12.64044 | 24 ft | 40 kts | 39° |
| 2026-05-05 10:15 | 55.61770 | 12.64080 | 21 ft | 18 kts | 357° |
| 2026-05-05 10:15 | 55.61874 | 12.64077 | 20 ft | 12 kts | 10° |
| 2026-05-05 10:15 | 55.61937 | 12.64123 | 21 ft | 8 kts | 24° |
| 2026-05-05 10:16 | 55.61967 | 12.64147 | 20 ft | 6 kts | 24° |
| 2026-05-05 10:16 | 55.62058 | 12.64228 | 20 ft | 27 kts | 26° |
| 2026-05-05 10:16 | 55.62238 | 12.64373 | 19 ft | 18 kts | 24° |
| 2026-05-05 10:16 | 55.62332 | 12.64423 | 20 ft | 11 kts | 11° |
| 2026-05-05 10:17 | 55.62393 | 12.64450 | 20 ft | 9 kts | 16° |
| 2026-05-05 10:17 | 55.62468 | 12.64485 | 20 ft | 13 kts | 5° |
| 2026-05-05 10:17 | 55.62542 | 12.64363 | 21 ft | 17 kts | 304° |
| 2026-05-05 10:17 | 55.62609 | 12.64179 | 20 ft | 18 kts | 303° |
| 2026-05-05 10:18 | 55.62681 | 12.63988 | 20 ft | 19 kts | 303° |
| 2026-05-05 10:18 | 55.62664 | 12.63789 | 20 ft | 18 kts | 263° |
| 2026-05-05 10:18 | 55.62675 | 12.63562 | 20 ft | 19 kts | 273° |
| 2026-05-05 10:18 | 55.62724 | 12.63337 | 19 ft | 20 kts | 309° |
| 2026-05-05 10:19 | 55.62753 | 12.63308 | 19 ft | 4 kts | 347° |
| 2026-05-05 10:19 | 55.62794 | 12.63302 | 20 ft | 8 kts | 357° |
| 2026-05-05 10:19 | 55.62828 | 12.63299 | 21 ft | 0 kts | 357° |